Time;durP1;ratioP1;P1;durP2;ratioP2;P2;SDS_P1;SDS_P2;PMS_P1;PMS_P2;Temp;Humidity;BMP_temperature;BMP_pressure;BME280_temperature;BME280_humidity;BME280_pressure;Samples;Min_cycle;Max_cycle;Signal;HPM_P1;HPM_P2
2024/02/26 00:01:27;;;;;;;143.80;46.70;;;;;;;-0.18;78.49;99952.89;103128;1292;24274;-58
2024/02/26 00:03:53;;;;;;;98.80;44.60;;;;;;;-0.17;78.09;99952.39;103229;1306;24053;-59
2024/02/26 00:06:19;;;;;;;85.10;42.60;;;;;;;-0.16;78.28;99951.05;103282;1313;22689;-64
2024/02/26 00:08:45;;;;;;;107.90;47.00;;;;;;;-0.13;78.56;99944.66;103296;1313;22974;-59
2024/02/26 00:11:10;;;;;;;105.50;48.30;;;;;;;-0.12;78.65;99936.55;103183;1308;24720;-60
2024/02/26 00:13:36;;;;;;;146.50;47.50;;;;;;;-0.11;78.76;99936.06;103223;1308;24278;-56
2024/02/26 00:16:07;;;;;;;141.70;49.50;;;;;;;-0.13;78.31;99931.97;103199;1308;22640;-59
2024/02/26 00:18:33;;;;;;;164.30;48.40;;;;;;;-0.16;77.91;99930.91;103171;1307;22577;-57
2024/02/26 00:20:58;;;;;;;153.20;50.90;;;;;;;-0.17;77.88;99932.23;104647;1314;24465;-58
2024/02/26 00:23:24;;;;;;;144.70;46.80;;;;;;;-0.17;78.17;99933.25;103166;1295;25271;-56
2024/02/26 00:25:49;;;;;;;134.60;46.20;;;;;;;-0.20;77.44;99933.73;103253;1314;22955;-59
2024/02/26 00:28:15;;;;;;;115.20;47.70;;;;;;;-0.19;78.05;99933.05;103202;1311;22746;-56
2024/02/26 00:30:41;;;;;;;112.80;47.40;;;;;;;-0.18;78.64;99934.27;103158;1314;22866;-57
2024/02/26 00:33:06;;;;;;;107.60;50.40;;;;;;;-0.14;78.88;99935.33;103059;1298;22688;-57
2024/02/26 00:35:31;;;;;;;104.00;47.40;;;;;;;-0.12;78.89;99938.09;103300;1308;23194;-58
2024/02/26 00:37:58;;;;;;;105.00;45.60;;;;;;;-0.10;78.90;99939.80;103368;1313;25506;-59
2024/02/26 00:40:24;;;;;;;;;;;;;;;-0.09;78.76;99939.15;103403;1307;22546;-59
2024/02/26 00:42:49;;;;;;;119.50;48.90;;;;;;;-0.09;79.10;99943.05;103243;1295;22521;-59
2024/02/26 00:45:16;;;;;;;109.80;49.60;;;;;;;-0.08;79.02;99942.55;103193;1314;22694;-57
2024/02/26 00:47:42;;;;;;;113.20;48.40;;;;;;;-0.08;78.94;99942.38;103212;1308;22689;-59
2024/02/26 00:50:08;;;;;;;100.50;45.00;;;;;;;-0.08;78.96;99943.22;103198;1292;22575;-59
2024/02/26 00:52:34;;;;;;;101.10;45.20;;;;;;;-0.07;78.77;99942.05;104815;1292;25156;-59
2024/02/26 00:55:01;;;;;;;82.00;42.20;;;;;;;-0.06;78.45;99939.38;103643;1313;22583;-59
2024/02/26 00:57:27;;;;;;;84.80;40.70;;;;;;;-0.05;78.74;99933.61;103841;1314;22626;-58
2024/02/26 00:59:52;;;;;;;118.50;44.90;;;;;;;-0.04;79.13;99932.95;103269;1310;24244;-57
2024/02/26 01:02:17;;;;;;;89.30;43.60;;;;;;;-0.04;79.11;99930.41;103152;1292;22564;-59
2024/02/26 01:04:43;;;;;;;90.90;42.70;;;;;;;-0.04;79.20;99926.18;103106;1295;22568;-58
2024/02/26 01:07:09;;;;;;;84.20;45.40;;;;;;;-0.02;79.22;99926.73;103207;1314;25443;-59
2024/02/26 01:09:35;;;;;;;92.60;44.00;;;;;;;0.01;79.43;99924.88;103389;1311;25386;-59
2024/02/26 01:12:02;;;;;;;90.20;45.30;;;;;;;0.04;79.49;99924.23;103237;1308;24244;-59
2024/02/26 01:14:28;;;;;;;97.10;44.60;;;;;;;0.04;79.53;99926.44;104589;1295;22598;-59
2024/02/26 01:16:53;;;;;;;76.20;43.30;;;;;;;0.04;79.28;99929.31;103318;1301;25523;-59
2024/02/26 01:19:19;;;;;;;95.80;45.30;;;;;;;0.05;79.57;99930.34;103418;1307;22556;-56
2024/02/26 01:21:44;;;;;;;85.30;46.30;;;;;;;0.05;79.61;99934.59;103135;1305;25305;-59
2024/02/26 01:24:10;;;;;;;90.10;46.60;;;;;;;0.07;79.69;99932.58;103256;1298;22579;-59
2024/02/26 01:26:36;;;;;;;93.40;47.40;;;;;;;0.07;79.51;99928.70;103260;1314;26530;-60
2024/02/26 01:29:01;;;;;;;121.00;45.20;;;;;;;0.05;79.67;99926.45;103189;1314;22562;-60
2024/02/26 01:31:27;;;;;;;98.40;45.10;;;;;;;0.01;79.84;99927.08;103140;1314;22796;-59
2024/02/26 01:33:52;;;;;;;102.10;46.50;;;;;;;-0.02;79.55;99927.73;103204;1295;22737;-60
2024/02/26 01:36:18;;;;;;;114.90;46.20;;;;;;;-0.05;79.24;99924.98;103250;1301;22624;-60
2024/02/26 01:38:43;;;;;;;91.10;46.30;;;;;;;-0.07;79.39;99924.45;103255;1313;22693;-59
2024/02/26 01:41:09;;;;;;;99.60;45.30;;;;;;;-0.09;79.00;99920.02;103248;1313;22804;-59
2024/02/26 01:43:34;;;;;;;105.70;43.80;;;;;;;-0.13;78.91;99918.76;103299;1295;22615;-62
2024/02/26 01:46:01;;;;;;;93.00;46.00;;;;;;;-0.17;79.42;99919.20;102990;1309;23190;-60
2024/02/26 01:48:26;;;;;;;108.90;46.70;;;;;;;-0.16;79.95;99919.89;103197;1308;26431;-59
2024/02/26 01:50:52;;;;;;;80.10;43.80;;;;;;;-0.15;80.05;99920.75;103109;1299;22564;-59
2024/02/26 01:53:19;;;;;;;87.40;44.20;;;;;;;-0.13;80.19;99924.52;103165;1314;22579;-57
2024/02/26 01:55:44;;;;;;;83.70;44.90;;;;;;;-0.10;79.92;99928.63;103193;1292;25328;-56
2024/02/26 01:58:11;;;;;;;85.40;42.80;;;;;;;-0.08;79.50;99927.82;103271;1298;22583;-56
2024/02/26 02:00:37;;;;;;;80.60;44.10;;;;;;;-0.10;79.51;99933.54;103549;1313;25546;-59
2024/02/26 02:03:03;;;;;;;77.60;43.40;;;;;;;-0.10;79.99;99937.44;104032;1308;22681;-59
2024/02/26 02:05:30;;;;;;;80.40;44.50;;;;;;;-0.07;80.14;99936.13;103392;1295;23042;-58
2024/02/26 02:07:56;;;;;;;85.10;45.00;;;;;;;-0.03;80.03;99936.88;103620;1314;25453;-59
2024/02/26 02:10:25;;;;;;;87.60;46.30;;;;;;;0.02;79.89;99939.28;103141;1314;23994;-60
2024/02/26 02:12:51;;;;;;;74.60;45.20;;;;;;;0.03;79.93;99937.95;103168;1308;22569;-59
2024/02/26 02:15:17;;;;;;;75.60;42.80;;;;;;;0.05;80.24;99940.85;105525;1295;24119;-59
2024/02/26 02:17:43;;;;;;;77.50;41.60;;;;;;;0.07;79.70;99934.96;103182;1313;24425;-60
2024/02/26 02:20:18;;;;;;;74.50;42.60;;;;;;;0.08;79.70;99933.61;103259;1306;22578;-59
2024/02/26 02:22:47;;;;;;;72.70;42.90;;;;;;;0.10;80.13;99929.08;103207;1313;22569;-58
2024/02/26 02:25:12;;;;;;;81.30;46.50;;;;;;;0.13;80.26;99927.27;103314;1295;22572;-60
2024/02/26 02:27:39;;;;;;;85.80;45.60;;;;;;;0.17;80.31;99924.26;103171;1308;23949;-60
2024/02/26 02:30:05;;;;;;;;;;;;;;;0.20;80.31;99925.33;103194;1314;22585;-59
2024/02/26 02:32:31;;;;;;;84.80;44.00;;;;;;;0.21;80.61;99924.83;103232;1308;23308;-59
2024/02/26 02:34:57;;;;;;;54.80;33.30;;;;;;;0.20;80.36;99923.80;103275;1299;22707;-57
2024/02/26 02:37:23;;;;;;;83.30;43.20;;;;;;;0.19;80.20;99925.99;103455;1313;26721;-58
2024/02/26 02:39:48;;;;;;;89.50;43.60;;;;;;;0.21;80.54;99924.50;103347;1313;22566;-57
2024/02/26 02:42:14;;;;;;;100.70;45.10;;;;;;;0.23;80.50;99915.20;103274;1313;22572;-60
2024/02/26 02:44:39;;;;;;;92.70;44.10;;;;;;;0.24;80.65;99911.48;103340;1313;22564;-59
2024/02/26 02:47:05;;;;;;;88.50;45.20;;;;;;;0.26;80.14;99907.45;103218;1314;22653;-59
2024/02/26 02:49:30;;;;;;;82.60;44.10;;;;;;;0.27;80.06;99910.19;103091;1310;24395;-59
2024/02/26 02:51:57;;;;;;;87.40;44.50;;;;;;;0.28;80.48;99911.55;103129;1310;24344;-57
2024/02/26 02:54:23;;;;;;;90.70;42.30;;;;;;;0.31;80.13;99911.75;103188;1301;22568;-59
2024/02/26 02:56:49;;;;;;;98.00;39.40;;;;;;;0.28;80.24;99910.71;103231;1303;22589;-59
2024/02/26 02:59:14;;;;;;;87.90;39.90;;;;;;;0.27;80.27;99906.27;103338;1314;27669;-59
2024/02/26 03:01:40;;;;;;;90.40;38.50;;;;;;;0.26;80.01;99906.95;103306;1309;23500;-58
2024/02/26 03:04:05;;;;;;;88.20;39.70;;;;;;;0.26;80.15;99904.58;103129;1313;24388;-59
2024/02/26 03:06:31;;;;;;;91.40;40.10;;;;;;;0.28;80.45;99902.05;103109;1297;22587;-60
2024/02/26 03:08:57;;;;;;;92.30;40.80;;;;;;;0.31;80.67;99894.64;103133;1313;22895;-60
2024/02/26 03:11:22;;;;;;;104.20;43.50;;;;;;;0.34;80.91;99890.95;103294;1308;24268;-59
2024/02/26 03:13:48;;;;;;;114.40;39.30;;;;;;;0.38;80.31;99883.88;103168;1299;22581;-59
2024/02/26 03:16:13;;;;;;;99.40;38.30;;;;;;;0.37;80.51;99890.82;103285;1294;25221;-59
2024/02/26 03:18:42;;;;;;;94.00;38.40;;;;;;;0.36;80.77;99891.65;103068;1310;25382;-57
2024/02/26 03:21:08;;;;;;;90.40;38.90;;;;;;;0.38;80.82;99893.70;103235;1314;22718;-60
2024/02/26 03:23:36;;;;;;;113.20;41.20;;;;;;;0.41;80.99;99898.33;103165;1314;22741;-59
2024/02/26 03:26:03;;;;;;;97.00;41.60;;;;;;;0.44;80.96;99901.09;103176;1294;22585;-57
2024/02/26 03:28:30;;;;;;;71.30;40.70;;;;;;;0.48;81.04;99900.46;103306;1313;22579;-58
2024/02/26 03:30:56;;;;;;;;;;;;;;;0.51;80.94;99896.25;99980;1314;5003692;-59
2024/02/26 03:33:21;;;;;;;76.50;38.70;;;;;;;0.54;81.58;99897.64;103168;1307;22580;-59
2024/02/26 03:35:46;;;;;;;87.10;41.70;;;;;;;0.55;81.27;99894.59;103297;1298;22580;-60
2024/02/26 03:38:13;;;;;;;125.60;46.00;;;;;;;0.57;81.45;99897.15;103274;1302;24318;-59
2024/02/26 03:40:38;;;;;;;146.00;44.60;;;;;;;0.58;81.41;99896.83;103141;1311;23004;-60
2024/02/26 03:43:06;;;;;;;130.10;46.00;;;;;;;0.56;81.80;99900.04;103214;1301;22688;-60
2024/02/26 03:45:32;;;;;;;165.40;45.80;;;;;;;0.54;81.28;99902.38;103173;1314;22596;-59
2024/02/26 03:47:58;;;;;;;164.90;47.20;;;;;;;0.54;81.29;99905.42;103298;1301;24950;-60
2024/02/26 03:50:23;;;;;;;117.80;47.80;;;;;;;0.54;81.54;99906.80;103191;1313;24304;-60
2024/02/26 03:52:49;;;;;;;118.20;44.70;;;;;;;0.56;81.28;99906.48;103108;1313;23370;-59
2024/02/26 03:55:14;;;;;;;128.40;45.10;;;;;;;0.56;81.39;99906.65;103376;1308;26105;-60
2024/02/26 03:57:40;;;;;;;122.20;45.80;;;;;;;0.57;81.35;99910.38;103269;1304;22560;-60
2024/02/26 04:00:06;;;;;;;140.30;49.30;;;;;;;0.57;81.46;99914.45;103175;1311;22679;-59
2024/02/26 04:02:32;;;;;;;119.40;44.00;;;;;;;0.58;81.18;99917.02;103236;1308;22658;-58
2024/02/26 04:04:59;;;;;;;134.50;47.40;;;;;;;0.58;81.10;99914.48;103190;1299;22576;-59
2024/02/26 04:07:24;;;;;;;93.40;45.70;;;;;;;0.60;81.43;99915.67;103184;1304;22768;-58
2024/02/26 04:09:50;;;;;;;128.30;47.70;;;;;;;0.62;81.77;99918.59;103284;1298;22555;-59
2024/02/26 04:12:15;;;;;;;110.50;46.80;;;;;;;0.65;81.86;99916.08;103264;1313;22578;-59
2024/02/26 04:14:41;;;;;;;120.10;46.50;;;;;;;0.67;81.78;99916.97;103273;1313;23253;-59
2024/02/26 04:17:06;;;;;;;136.70;46.80;;;;;;;0.68;81.80;99916.81;103299;1295;22677;-58
2024/02/26 04:19:32;;;;;;;105.10;45.90;;;;;;;0.69;81.81;99918.68;103185;1314;22569;-59
2024/02/26 04:21:57;;;;;;;123.20;48.30;;;;;;;0.71;81.97;99918.19;103174;1313;22580;-56
2024/02/26 04:24:23;;;;;;;123.10;47.00;;;;;;;0.72;82.03;99921.09;103229;1312;22572;-59
2024/02/26 04:26:49;;;;;;;153.10;47.20;;;;;;;0.73;81.94;99924.15;103294;1295;25472;-59
2024/02/26 04:29:15;;;;;;;99.30;44.40;;;;;;;0.72;81.63;99919.73;103290;1313;22577;-59
2024/02/26 04:31:42;;;;;;;108.50;45.60;;;;;;;0.71;81.62;99920.56;103207;1308;26730;-56
2024/02/26 04:34:08;;;;;;;109.10;44.70;;;;;;;0.70;82.02;99922.92;103320;1308;25274;-59
2024/02/26 04:36:33;;;;;;;121.90;46.40;;;;;;;0.71;82.14;99923.79;103337;1309;24267;-56
2024/02/26 04:38:59;;;;;;;128.70;45.40;;;;;;;0.70;82.22;99926.49;103142;1299;22686;-60
2024/02/26 04:41:24;;;;;;;84.60;43.60;;;;;;;0.67;81.68;99926.27;103122;1301;22562;-59
2024/02/26 04:43:50;;;;;;;91.80;44.20;;;;;;;0.62;82.01;99929.61;103186;1308;23802;-59
2024/02/26 04:46:15;;;;;;;129.90;47.40;;;;;;;0.63;82.16;99934.55;103209;1313;22630;-58
2024/02/26 04:48:42;;;;;;;109.90;43.70;;;;;;;0.60;81.98;99935.86;103261;1305;23404;-58
2024/02/26 04:51:07;;;;;;;108.10;45.20;;;;;;;0.54;81.75;99934.60;103322;1308;22642;-58
2024/02/26 04:53:33;;;;;;;98.40;44.20;;;;;;;0.52;82.30;99935.94;103353;1298;23172;-60
2024/02/26 04:55:58;;;;;;;83.80;44.60;;;;;;;0.55;82.29;99941.05;103243;1302;22684;-57
2024/02/26 04:58:24;;;;;;;75.90;43.40;;;;;;;0.56;82.16;99937.85;103291;1301;22592;-59
2024/02/26 05:00:49;;;;;;;83.80;43.60;;;;;;;0.55;82.23;99940.36;103215;1303;25168;-59
2024/02/26 05:03:15;;;;;;;81.10;44.50;;;;;;;0.53;82.11;99945.95;103170;1310;22582;-59
2024/02/26 05:05:43;;;;;;;76.40;42.20;;;;;;;0.52;82.38;99947.48;103184;1292;22848;-63
2024/02/26 05:08:09;;;;;;;77.50;42.90;;;;;;;0.52;81.98;99947.98;103655;1312;23963;-57
2024/02/26 05:10:38;;;;;;;73.10;42.50;;;;;;;0.48;82.03;99943.70;102983;1298;24291;-59
2024/02/26 05:13:05;;;;;;;79.60;41.90;;;;;;;0.47;82.04;99942.84;103127;1313;22599;-59
2024/02/26 05:15:30;;;;;;;82.60;45.00;;;;;;;0.44;82.21;99944.84;103383;1311;22607;-61
2024/02/26 05:17:55;;;;;;;71.50;40.90;;;;;;;0.43;82.21;99945.50;103280;1305;25648;-58
2024/02/26 05:20:21;;;;;;;80.80;42.90;;;;;;;0.38;82.10;99948.46;103169;1314;26531;-59
2024/02/26 05:22:47;;;;;;;65.00;41.50;;;;;;;0.34;82.29;99944.52;103192;1314;22790;-60
2024/02/26 05:25:15;;;;;;;65.90;41.40;;;;;;;0.32;82.39;99946.70;103095;1301;22570;-59
2024/02/26 05:27:41;;;;;;;70.50;40.00;;;;;;;0.28;81.83;99950.02;103189;1292;22716;-58
2024/02/26 05:30:07;;;;;;;63.80;37.70;;;;;;;0.22;81.88;99955.02;103321;1296;22567;-57
2024/02/26 05:32:33;;;;;;;69.30;39.40;;;;;;;0.17;81.65;99954.27;103152;1313;22598;-56
2024/02/26 05:34:58;;;;;;;70.30;39.70;;;;;;;0.10;81.81;99954.15;103261;1313;24288;-58
2024/02/26 05:37:24;;;;;;;68.50;37.40;;;;;;;0.05;81.69;99959.33;103344;1313;22588;-59
2024/02/26 05:39:49;;;;;;;61.10;38.50;;;;;;;0.04;82.03;99962.19;103399;1304;26684;-54
2024/02/26 05:42:14;;;;;;;62.80;38.10;;;;;;;0.04;82.12;99961.52;103638;1309;22566;-56
2024/02/26 05:44:40;;;;;;;66.30;36.40;;;;;;;0.01;81.81;99960.80;103178;1314;22585;-56
2024/02/26 05:47:05;;;;;;;72.40;36.80;;;;;;;-0.05;81.82;99961.23;103344;1301;22766;-58
2024/02/26 05:49:32;;;;;;;70.60;35.30;;;;;;;-0.09;81.99;99962.34;103238;1305;22578;-58
2024/02/26 05:51:58;;;;;;;91.90;39.20;;;;;;;-0.13;81.97;99966.86;103421;1313;22983;-58
2024/02/26 05:54:23;;;;;;;95.10;40.40;;;;;;;-0.15;82.26;99972.07;103513;1299;22697;-57
2024/02/26 05:56:49;;;;;;;99.50;39.90;;;;;;;-0.13;82.49;99976.34;103417;1305;24318;-56
2024/02/26 05:59:15;;;;;;;87.00;39.10;;;;;;;-0.11;82.29;99978.41;104228;1298;24104;-56
2024/02/26 06:01:41;;;;;;;73.50;39.80;;;;;;;-0.10;82.25;99978.09;103646;1311;22643;-57
2024/02/26 06:04:07;;;;;;;87.50;40.50;;;;;;;-0.11;81.87;99976.54;103842;1313;25131;-59
2024/02/26 06:06:32;;;;;;;78.90;42.10;;;;;;;-0.13;82.25;99974.80;104275;1313;23802;-58
2024/02/26 06:08:58;;;;;;;80.20;42.10;;;;;;;-0.11;82.46;99975.36;103896;1295;22593;-58
2024/02/26 06:11:23;;;;;;;82.20;42.70;;;;;;;-0.10;82.12;99971.66;103807;1313;22582;-57
2024/02/26 06:13:49;;;;;;;76.10;40.10;;;;;;;-0.10;82.48;99976.39;103857;1313;22567;-58
2024/02/26 06:16:15;;;;;;;72.00;39.10;;;;;;;-0.09;82.21;99975.39;103865;1312;22676;-58
2024/02/26 06:18:40;;;;;;;72.80;41.80;;;;;;;-0.11;82.55;99977.92;103803;1292;22579;-58
2024/02/26 06:21:10;;;;;;;86.70;40.30;;;;;;;-0.08;82.33;99980.84;103801;1314;26051;-58
2024/02/26 06:23:37;;;;;;;72.20;39.20;;;;;;;-0.05;82.24;99974.77;105810;1314;22887;-58
2024/02/26 06:26:03;;;;;;;68.80;38.50;;;;;;;-0.08;82.15;99973.39;103789;1314;25495;-59
2024/02/26 06:28:32;;;;;;;71.30;40.90;;;;;;;-0.07;82.54;99976.79;103934;1314;22549;-58
2024/02/26 06:30:57;;;;;;;72.40;40.90;;;;;;;-0.02;82.47;99979.58;104000;1295;22838;-57
2024/02/26 06:33:23;;;;;;;89.50;41.30;;;;;;;0.01;82.32;99983.67;104117;1289;24763;-57
2024/02/26 06:35:48;;;;;;;84.70;43.90;;;;;;;0.01;82.69;99992.48;104092;1311;25461;-57
2024/02/26 06:38:14;;;;;;;120.00;47.00;;;;;;;0.06;83.08;99992.55;103976;1295;22728;-58
2024/02/26 06:40:40;;;;;;;71.80;43.10;;;;;;;0.14;82.91;99995.56;104065;1295;22872;-58
2024/02/26 06:43:05;;;;;;;66.70;41.50;;;;;;;0.18;82.65;99997.84;103859;1308;25434;-58
2024/02/26 06:45:31;;;;;;;77.10;41.10;;;;;;;0.22;82.65;99998.75;104122;1307;22704;-58
2024/02/26 06:47:57;;;;;;;68.80;40.40;;;;;;;0.25;82.41;100002.36;105941;1311;22592;-58
2024/02/26 06:50:22;;;;;;;66.90;40.70;;;;;;;0.23;82.45;100005.36;105897;1303;22941;-57
2024/02/26 06:52:48;;;;;;;68.40;41.60;;;;;;;0.27;82.84;100006.11;105901;1308;22905;-58
2024/02/26 06:55:21;;;;;;;69.10;41.70;;;;;;;0.34;82.93;100010.63;105657;1308;22581;-65
2024/02/26 06:57:46;;;;;;;83.70;39.70;;;;;;;0.45;83.06;100008.08;106278;1308;23053;-58
2024/02/26 07:00:14;;;;;;;69.20;40.70;;;;;;;0.50;83.17;100002.41;104244;1295;22587;-57
2024/02/26 07:02:40;;;;;;;74.90;39.90;;;;;;;0.55;83.32;100001.26;104749;1308;22714;-59
2024/02/26 07:05:07;;;;;;;69.50;42.70;;;;;;;0.62;83.27;100000.35;103335;1314;26528;-57
2024/02/26 07:07:32;;;;;;;76.30;43.80;;;;;;;0.73;83.41;99995.40;103282;1307;25498;-58
2024/02/26 07:09:58;;;;;;;77.20;42.80;;;;;;;0.85;83.28;99999.13;103303;1292;25366;-60
2024/02/26 07:12:23;;;;;;;72.70;42.90;;;;;;;0.95;83.53;100003.35;103359;1311;27967;-60
2024/02/26 07:14:50;;;;;;;82.90;42.80;;;;;;;1.08;83.22;100011.95;103241;1307;22689;-60
2024/02/26 07:17:16;;;;;;;75.50;42.70;;;;;;;1.08;83.22;100008.06;103363;1305;22652;-61
2024/02/26 07:19:42;;;;;;;81.50;45.30;;;;;;;1.13;83.50;100009.30;103792;1298;22558;-58
2024/02/26 07:22:08;;;;;;;91.70;45.80;;;;;;;1.18;83.35;100012.25;103119;1308;25485;-59
2024/02/26 07:24:33;;;;;;;78.00;48.50;;;;;;;1.22;83.51;100010.25;103199;1307;22737;-59
2024/02/26 07:26:59;;;;;;;88.10;56.00;;;;;;;1.30;83.58;100008.33;103154;1302;27686;-57
2024/02/26 07:29:24;;;;;;;84.10;54.00;;;;;;;1.35;83.47;100009.73;103187;1315;24318;-59
2024/02/26 07:31:49;;;;;;;99.30;52.40;;;;;;;1.38;83.47;100010.61;103295;1303;23060;-58
2024/02/26 07:34:15;;;;;;;86.00;53.50;;;;;;;1.46;83.93;100009.86;103320;1308;24116;-59
2024/02/26 07:36:40;;;;;;;84.10;46.00;;;;;;;1.60;83.82;100011.02;103374;1313;24240;-60
2024/02/26 07:39:06;;;;;;;88.30;42.60;;;;;;;1.69;83.85;100009.05;103334;1313;26893;-58
2024/02/26 07:41:31;;;;;;;67.00;42.60;;;;;;;1.78;83.79;100011.53;103372;1295;23933;-59
2024/02/26 07:43:57;;;;;;;77.30;44.90;;;;;;;1.87;84.15;100016.21;103302;1314;22994;-57
2024/02/26 07:46:22;;;;;;;69.30;42.50;;;;;;;2.00;84.12;100023.13;103452;1314;23106;-58
2024/02/26 07:48:48;;;;;;;81.40;41.60;;;;;;;2.10;83.93;100018.94;103328;1301;22786;-57
2024/02/26 07:51:14;;;;;;;67.40;42.90;;;;;;;2.14;84.07;100017.61;103304;1313;22597;-60
2024/02/26 07:53:40;;;;;;;63.40;43.50;;;;;;;2.28;84.14;100017.55;103394;1313;22588;-59
2024/02/26 07:56:06;;;;;;;74.90;47.40;;;;;;;2.39;84.36;100016.46;103387;1313;23904;-58
2024/02/26 07:58:35;;;;;;;69.60;42.20;;;;;;;2.58;84.26;100013.34;103742;1314;23972;-59
2024/02/26 08:01:01;;;;;;;72.90;42.00;;;;;;;2.64;83.98;100011.49;103623;1292;22683;-59
2024/02/26 08:03:26;;;;;;;63.80;40.70;;;;;;;2.72;84.13;100015.80;103215;1298;22975;-59
2024/02/26 08:05:52;;;;;;;73.90;40.90;;;;;;;2.85;84.44;100008.73;103244;1314;22704;-57
2024/02/26 08:08:17;;;;;;;67.30;40.50;;;;;;;2.98;84.52;100013.40;103213;1311;24303;-60
2024/02/26 08:10:43;;;;;;;65.00;39.70;;;;;;;3.07;84.40;100018.72;103199;1290;23823;-59
2024/02/26 08:13:09;;;;;;;68.20;40.80;;;;;;;3.15;84.38;100024.35;104989;1292;22992;-57
2024/02/26 08:15:38;;;;;;;69.40;40.40;;;;;;;3.33;84.69;100026.81;105432;1314;22627;-57
2024/02/26 08:18:04;;;;;;;67.40;41.30;;;;;;;3.58;84.95;100030.98;105170;1307;22557;-57
2024/02/26 08:20:30;;;;;;;69.40;43.50;;;;;;;3.87;84.91;100040.23;104499;1313;24254;-54
2024/02/26 08:22:56;;;;;;;56.10;38.80;;;;;;;4.38;85.18;100040.59;103945;1304;25451;-57
2024/02/26 08:25:22;;;;;;;57.10;37.60;;;;;;;4.94;85.05;100044.25;103570;1301;25284;-57
2024/02/26 08:27:48;;;;;;;48.20;33.80;;;;;;;5.46;85.13;100039.95;104709;1308;23956;-56
2024/02/26 08:30:17;;;;;;;45.50;32.90;;;;;;;5.90;85.02;100039.38;103800;1301;22569;-57
2024/02/26 08:32:44;;;;;;;43.00;30.80;;;;;;;6.65;85.39;100038.59;103811;1295;22563;-58
2024/02/26 08:35:10;;;;;;;39.10;29.40;;;;;;;7.56;85.57;100042.51;104151;1313;22606;-58
2024/02/26 08:37:45;;;;;;;39.80;29.10;;;;;;;8.59;85.77;100038.37;104163;1307;22674;-57
2024/02/26 08:40:12;;;;;;;35.00;26.90;;;;;;;9.65;85.59;100032.31;104797;1301;24269;-57
2024/02/26 08:42:38;;;;;;;37.60;29.20;;;;;;;10.57;85.62;100032.39;103693;1295;22545;-57
2024/02/26 08:45:09;;;;;;;35.90;28.80;;;;;;;11.32;85.47;100026.38;103463;1314;22576;-57
2024/02/26 08:47:35;;;;;;;38.50;28.40;;;;;;;11.76;85.34;100026.79;103452;1314;25386;-56
2024/02/26 08:50:00;;;;;;;37.70;28.80;;;;;;;12.12;85.72;100028.28;103395;1314;22550;-56
2024/02/26 08:52:29;;;;;;;66.70;29.30;;;;;;;12.61;85.96;100023.17;103509;1295;22562;-57
2024/02/26 08:54:55;;;;;;;100.90;32.70;;;;;;;12.97;84.77;100020.86;103592;1293;22569;-56
2024/02/26 08:57:20;;;;;;;289.10;43.40;;;;;;;13.10;84.27;100018.50;103636;1313;22605;-57
2024/02/26 08:59:46;;;;;;;175.60;44.40;;;;;;;13.39;84.42;100022.50;103511;1301;24199;-57
2024/02/26 09:02:21;;;;;;;;;;;;;;;;;;;;;
2024/02/26 09:04:47;;;;;;;383.10;47.40;;;;;;;14.27;84.56;100024.75;103538;1308;24514;-56
2024/02/26 09:07:13;;;;;;;211.60;39.80;;;;;;;14.82;84.80;100030.09;103580;1314;24235;-57
2024/02/26 09:09:48;;;;;;;550.80;55.80;;;;;;;15.39;84.27;100025.98;103508;1307;25274;-58
2024/02/26 09:12:13;;;;;;;414.30;51.60;;;;;;;16.11;85.06;100024.54;103687;1290;24287;-56
2024/02/26 09:14:39;;;;;;;391.40;45.40;;;;;;;17.02;84.92;100029.84;104300;1308;22644;-56
2024/02/26 09:17:07;;;;;;;353.40;51.20;;;;;;;17.85;84.75;100025.74;104215;1306;22680;-57
2024/02/26 09:19:38;;;;;;;449.10;54.40;;;;;;;18.36;83.24;100023.69;104210;1313;26988;-55
2024/02/26 09:22:04;;;;;;;459.50;58.90;;;;;;;18.39;82.31;100021.62;104073;1313;22573;-53
2024/02/26 09:24:29;;;;;;;433.40;55.70;;;;;;;18.84;84.19;100029.98;104211;1295;22533;-53
2024/02/26 09:26:55;;;;;;;321.70;52.10;;;;;;;19.31;82.82;100035.96;104245;1313;22555;-56
2024/02/26 09:29:21;;;;;;;473.10;55.10;;;;;;;19.49;79.97;100036.81;104285;1308;22626;-57
2024/02/26 09:31:49;;;;;;;354.90;44.80;;;;;;;19.61;80.74;100036.11;104344;1299;22627;-56
2024/02/26 09:34:15;;;;;;;333.70;49.50;;;;;;;19.66;80.99;100038.41;104114;1297;22572;-55
2024/02/26 09:36:40;;;;;;;285.80;44.80;;;;;;;19.84;80.07;100034.95;103891;1311;23891;-56
2024/02/26 09:39:11;;;;;;;343.70;49.20;;;;;;;19.56;76.59;100031.15;104235;1314;22779;-56
2024/02/26 09:41:38;;;;;;;254.90;41.50;;;;;;;19.78;77.81;100028.53;104221;1313;22572;-54
2024/02/26 09:44:05;;;;;;;;;;;;;;;20.29;77.50;100029.05;104187;1307;26080;-53
2024/02/26 09:46:31;;;;;;;300.40;49.30;;;;;;;20.16;77.10;100031.17;104099;1313;22908;-57
2024/02/26 09:48:57;;;;;;;;;;;;;;;20.13;77.03;100027.48;104453;1308;22574;-55
2024/02/26 09:51:27;;;;;;;212.40;43.00;;;;;;;20.49;76.71;100022.65;104520;1313;22211;-55
2024/02/26 09:53:53;;;;;;;393.80;51.50;;;;;;;20.79;74.55;100021.50;104418;1297;22754;-55
2024/02/26 09:56:19;;;;;;;461.30;52.40;;;;;;;21.48;73.90;100022.87;104134;1305;22572;-54
2024/02/26 09:58:48;;;;;;;378.20;51.70;;;;;;;21.70;71.30;100021.98;104526;1308;23926;-56
2024/02/26 10:01:18;;;;;;;427.00;49.80;;;;;;;21.31;70.09;100027.05;104812;1306;24028;-56
2024/02/26 10:03:47;;;;;;;436.80;52.10;;;;;;;21.37;71.41;100024.02;106092;1295;25971;-56
2024/02/26 10:06:14;;;;;;;219.00;41.40;;;;;;;21.78;71.32;100023.34;104636;1313;22974;-55
2024/02/26 10:08:40;;;;;;;415.30;44.00;;;;;;;21.70;68.93;100020.27;104571;1311;25551;-56
2024/02/26 10:11:08;;;;;;;409.80;57.00;;;;;;;21.61;66.14;100020.01;104751;1299;22615;-56
2024/02/26 10:13:36;;;;;;;426.90;52.40;;;;;;;21.19;65.96;100019.98;105286;1295;22586;-57
2024/02/26 10:16:03;;;;;;;308.60;46.90;;;;;;;20.97;66.15;100020.92;105718;1307;22577;-57
2024/02/26 10:18:52;;;;;;;386.90;51.90;;;;;;;21.13;68.36;100020.39;105769;1314;22571;-57
2024/02/26 10:21:22;;;;;;;147.60;36.90;;;;;;;21.59;67.30;100018.04;105315;1306;22606;-56
2024/02/26 10:23:48;;;;;;;311.90;50.80;;;;;;;21.65;67.00;100012.02;104162;1292;22579;-55
2024/02/26 10:26:15;;;;;;;;;;;;;;;21.79;65.61;100011.16;103747;1301;23037;-56
2024/02/26 10:28:45;;;;;;;346.30;43.80;;;;;;;22.02;67.51;100016.81;103692;1313;23228;-56
2024/02/26 10:31:13;;;;;;;486.00;54.80;;;;;;;22.30;63.78;100017.94;103192;1311;487203;-55
2024/02/26 10:33:41;;;;;;;220.90;38.80;;;;;;;21.94;61.59;100020.42;103810;1292;23988;-55
2024/02/26 10:36:07;;;;;;;362.00;46.90;;;;;;;21.29;60.48;100019.59;103434;1311;25275;-55
2024/02/26 10:38:35;;;;;;;121.70;32.10;;;;;;;21.08;61.50;100020.73;103570;1311;22646;-55
2024/02/26 10:41:08;;;;;;;100.20;27.30;;;;;;;20.82;60.63;100018.01;103497;1311;26689;-56
2024/02/26 10:43:33;;;;;;;218.60;32.60;;;;;;;20.62;62.16;100011.51;103481;1314;25453;-55
2024/02/26 10:45:59;;;;;;;142.70;30.80;;;;;;;20.44;60.00;100013.02;103479;1295;24324;-56
2024/02/26 10:48:25;;;;;;;196.70;29.10;;;;;;;20.29;61.58;100016.11;103441;1308;22604;-55
2024/02/26 10:50:51;;;;;;;74.30;21.70;;;;;;;20.28;60.37;100018.78;103402;1314;22578;-55
2024/02/26 10:53:19;;;;;;;135.10;25.40;;;;;;;20.07;59.96;100019.11;103377;1308;26551;-54
2024/02/26 10:56:01;;;;;;;81.80;24.20;;;;;;;19.69;59.29;100015.63;103903;1295;25920;-56
2024/02/26 10:58:28;;;;;;;152.40;26.60;;;;;;;19.76;61.09;100011.69;103380;1314;24310;-54
2024/02/26 11:00:57;;;;;;;103.90;26.50;;;;;;;20.21;59.65;100015.60;103378;1308;26040;-57
2024/02/26 11:03:24;;;;;;;148.90;26.80;;;;;;;20.53;59.76;100011.91;103573;1314;22729;-56
2024/02/26 11:05:50;;;;;;;105.10;28.00;;;;;;;21.01;59.55;100008.04;104163;1295;24312;-54